Time;durP1;ratioP1;P1;durP2;ratioP2;P2;SDS_P1;SDS_P2;PMS_P1;PMS_P2;Temp;Humidity;BMP_temperature;BMP_pressure;BME280_temperature;BME280_humidity;BME280_pressure;Samples;Min_cycle;Max_cycle;Signal;HPM_P1;HPM_P2
2022/01/23 00:02:09;;;;;;;84.80;46.67;;;5.20;99.90;;;;;;5050855;28;20481;-70
2022/01/23 00:04:36;;;;;;;91.70;50.10;;;5.30;99.90;;;;;;5056415;28;20588;-71
2022/01/23 00:07:08;;;;;;;82.33;46.87;;;5.40;99.90;;;;;;5054934;28;20497;-70
2022/01/23 00:09:35;;;;;;;78.57;46.20;;;5.40;99.90;;;;;;5055839;28;20895;-70
2022/01/23 00:12:06;;;;;;;96.00;50.40;;;5.30;99.90;;;;;;5051464;28;20486;-69
2022/01/23 00:17:18;;;;;;;81.90;49.23;;;5.30;99.90;;;;;;5055862;28;20455;-70
2022/01/23 00:19:46;;;;;;;84.83;48.17;;;5.40;99.90;;;;;;5060554;28;20466;-69
2022/01/23 00:22:14;;;;;;;88.40;50.07;;;5.40;99.90;;;;;;5061699;28;20469;-70
2022/01/23 00:30:26;;;;;;;76.73;48.80;;;5.40;99.90;;;;;;5058732;28;20478;-70
2022/01/23 00:32:54;;;;;;;85.27;48.07;;;5.40;99.90;;;;;;5057510;28;20463;-70
2022/01/23 00:35:22;;;;;;;94.23;51.83;;;5.30;99.90;;;;;;5056430;28;20857;-71
2022/01/23 00:37:51;;;;;;;85.13;50.47;;;5.30;99.90;;;;;;5052571;28;20472;-70
2022/01/23 00:40:18;;;;;;;83.37;49.40;;;5.40;99.90;;;;;;5057125;28;21073;-71
2022/01/23 00:42:46;;;;;;;76.00;47.33;;;5.40;99.90;;;;;;5059921;28;20469;-70
2022/01/23 00:48:00;;;;;;;90.33;48.90;;;5.40;99.90;;;;;;5050565;28;20562;-70
2022/01/23 00:50:28;;;;;;;81.33;49.00;;;5.40;99.90;;;;;;5054781;28;20463;-70
2022/01/23 00:52:57;;;;;;;81.97;48.70;;;5.40;99.90;;;;;;5046726;28;20463;-71
2022/01/23 00:55:24;;;;;;;81.83;47.33;;;5.40;99.90;;;;;;5050483;28;20846;-71
2022/01/23 00:57:51;;;;;;;87.40;49.70;;;5.40;99.90;;;;;;5052263;28;20461;-72
2022/01/23 01:00:19;;;;;;;70.80;47.40;;;5.40;99.90;;;;;;5055836;28;20464;-71
2022/01/23 01:02:46;;;;;;;81.13;47.97;;;5.30;99.90;;;;;;5056201;28;20459;-71
2022/01/23 01:05:14;;;;;;;79.57;47.23;;;5.30;99.90;;;;;;5055470;28;20960;-70
2022/01/23 01:07:41;;;;;;;78.97;46.57;;;5.20;99.90;;;;;;5060689;28;20472;-71
2022/01/23 01:10:17;;;;;;;79.20;47.07;;;5.30;99.90;;;;;;5060767;28;20465;-71
2022/01/23 01:12:46;;;;;;;81.83;47.93;;;5.30;99.90;;;;;;5062358;28;20492;-71
2022/01/23 01:31:45;;;;;;;77.50;44.83;;;5.40;99.90;;;;;;5055569;28;20454;-70
2022/01/23 01:34:16;;;;;;;79.87;45.57;;;5.40;99.90;;;;;;5063323;28;20473;-70
2022/01/23 01:36:48;;;;;;;75.63;46.53;;;5.30;99.90;;;;;;5053496;28;20552;-71
2022/01/23 01:39:18;;;;;;;84.03;48.73;;;5.40;99.90;;;;;;5059998;28;20500;-71
2022/01/23 01:41:47;;;;;;;93.17;48.57;;;5.40;99.90;;;;;;5059822;28;20541;-70
2022/01/23 01:44:17;;;;;;;89.03;49.00;;;5.40;99.90;;;;;;5061416;28;20453;-70
2022/01/23 01:46:44;;;;;;;89.37;49.37;;;5.40;99.90;;;;;;5056489;28;20555;-69
2022/01/23 01:49:11;;;;;;;78.03;48.30;;;5.40;99.90;;;;;;5048585;28;20788;-71
2022/01/23 01:51:40;;;;;;;81.33;50.00;;;5.40;99.90;;;;;;5051035;28;20462;-71
2022/01/23 01:54:13;;;;;;;81.77;45.87;;;5.40;99.90;;;;;;5055240;28;21322;-71
2022/01/23 01:56:49;;;;;;;83.30;49.77;;;5.40;99.90;;;;;;5050584;28;20539;-72
2022/01/23 02:10:18;;;;;;;80.57;47.00;;;5.40;99.90;;;;;;5035800;28;20522;-70
2022/01/23 02:18:29;;;;;;;88.17;47.87;;;5.30;99.90;;;;;;5040048;28;20847;-69
2022/01/23 02:51:32;;;;;;;80.37;45.53;;;5.40;99.90;;;;;;5044699;28;20466;-71
2022/01/23 02:54:20;;;;;;;77.23;47.73;;;5.40;99.90;;;;;;5049253;28;20466;-69
2022/01/23 02:56:50;;;;;;;77.63;48.40;;;5.50;99.90;;;;;;5058404;28;20466;-69
2022/01/23 02:59:23;;;;;;;66.30;46.40;;;5.50;99.90;;;;;;5056325;28;20836;-69
2022/01/23 03:02:03;;;;;;;71.70;46.27;;;5.50;99.90;;;;;;5054043;28;20461;-69
2022/01/23 03:04:32;;;;;;;78.53;46.43;;;5.50;99.90;;;;;;5056005;28;20483;-70
2022/01/23 03:07:15;;;;;;;78.60;46.07;;;5.50;99.90;;;;;;5057175;28;20462;-69
2022/01/23 03:09:58;;;;;;;83.30;48.33;;;5.60;99.90;;;;;;5052156;28;20474;-69
2022/01/23 03:15:29;;;;;;;76.03;47.40;;;5.60;99.90;;;;;;5093278;27;20584;-69
2022/01/23 03:26:24;;;;;;;71.90;45.80;;;5.60;99.90;;;;;;5074736;28;20452;-70
2022/01/23 03:29:05;;;;;;;74.87;46.27;;;5.50;99.90;;;;;;5073150;28;20458;-70
2022/01/23 03:31:42;;;;;;;72.67;46.60;;;5.40;99.90;;;;;;5075897;28;20461;-70
2022/01/23 03:34:09;;;;;;;70.33;46.63;;;5.40;99.90;;;;;;5076992;28;20487;-70
2022/01/23 03:36:37;;;;;;;72.40;45.40;;;5.40;99.90;;;;;;5069760;28;20461;-70
2022/01/23 03:39:08;;;;;;;82.30;46.20;;;5.40;99.90;;;;;;5078190;28;20800;-70
2022/01/23 03:41:36;;;;;;;81.73;50.17;;;5.50;99.90;;;;;;5080011;28;20460;-70
2022/01/23 03:44:05;;;;;;;70.07;46.20;;;5.50;99.90;;;;;;5074276;28;20469;-70
2022/01/23 03:46:47;;;;;;;80.23;46.10;;;5.60;99.90;;;;;;5074690;28;20471;-69
2022/01/23 03:49:32;;;;;;;69.67;46.97;;;5.50;99.90;;;;;;5073838;28;20961;-70
2022/01/23 03:52:01;;;;;;;76.80;47.37;;;5.50;99.90;;;;;;5077480;28;20865;-70
2022/01/23 03:54:29;;;;;;;77.17;44.50;;;5.60;99.90;;;;;;5070397;28;20512;-69
2022/01/23 03:56:57;;;;;;;81.13;44.83;;;5.50;99.90;;;;;;5076975;28;20461;-70
2022/01/23 03:59:25;;;;;;;78.73;45.60;;;5.50;99.90;;;;;;5074330;28;20456;-70
2022/01/23 04:01:54;;;;;;;67.60;44.77;;;5.50;99.90;;;;;;5079007;28;20466;-70
2022/01/23 04:07:02;;;;;;;65.07;44.67;;;5.60;99.90;;;;;;5078684;28;20460;-70
2022/01/23 04:09:29;;;;;;;65.73;45.50;;;5.60;99.90;;;;;;5075274;28;20459;-70
2022/01/23 04:11:57;;;;;;;66.57;44.50;;;5.70;99.90;;;;;;5075989;28;20466;-70
2022/01/23 04:14:26;;;;;;;74.47;46.70;;;5.70;99.90;;;;;;5074385;28;20573;-70
2022/01/23 04:20:02;;;;;;;67.77;47.30;;;5.80;99.90;;;;;;5063095;28;20462;-70
2022/01/23 04:33:41;;;;;;;74.43;45.60;;;5.60;99.90;;;;;;5066289;28;20461;-69
2022/01/23 05:00:52;;;;;;;71.40;43.70;;;5.50;99.90;;;;;;5044109;28;20500;-70
2022/01/23 05:06:07;;;;;;;67.27;44.33;;;5.50;99.90;;;;;;5053120;28;21239;-70
2022/01/23 05:08:36;;;;;;;78.63;44.80;;;5.50;99.90;;;;;;5027734;28;20625;-71
2022/01/23 05:11:07;;;;;;;72.00;44.43;;;5.50;99.90;;;;;;5028151;28;20560;-70
2022/01/23 05:13:35;;;;;;;73.57;46.20;;;5.50;99.90;;;;;;5029189;28;20491;-71
2022/01/23 05:16:02;;;;;;;69.00;44.80;;;5.40;99.90;;;;;;5030480;28;20487;-71
2022/01/23 05:18:30;;;;;;;72.13;45.80;;;5.50;99.90;;;;;;5030016;28;20529;-71
2022/01/23 05:21:17;;;;;;;65.90;43.77;;;5.50;99.90;;;;;;5028430;28;20450;-71
2022/01/23 05:23:46;;;;;;;65.50;43.57;;;5.50;99.90;;;;;;5029047;28;20479;-71
2022/01/23 05:26:13;;;;;;;62.37;44.97;;;5.50;99.90;;;;;;5029441;28;21051;-71
2022/01/23 05:28:39;;;;;;;69.63;44.57;;;5.50;99.90;;;;;;5030140;28;20478;-71
2022/01/23 05:31:06;;;;;;;70.73;45.90;;;5.50;99.90;;;;;;5030037;28;20453;-70
2022/01/23 05:33:33;;;;;;;67.57;45.70;;;5.40;99.90;;;;;;5028314;28;20502;-71
2022/01/23 05:36:00;;;;;;;71.80;47.33;;;5.30;99.90;;;;;;5027805;28;20459;-70
2022/01/23 05:38:27;;;;;;;77.40;46.40;;;5.40;99.90;;;;;;5029011;28;20492;-71
2022/01/23 05:40:57;;;;;;;69.53;44.40;;;5.50;99.90;;;;;;5028828;28;20473;-71
2022/01/23 05:43:25;;;;;;;69.50;45.40;;;5.50;99.90;;;;;;5028452;28;20985;-71
2022/01/23 05:45:52;;;;;;;70.77;46.80;;;5.60;99.90;;;;;;5029309;28;20548;-69
2022/01/23 05:48:20;;;;;;;72.70;47.80;;;5.70;99.90;;;;;;5030373;28;20458;-70
2022/01/23 05:50:48;;;;;;;71.27;46.70;;;5.70;99.90;;;;;;5028484;28;21600;-69
2022/01/23 05:53:15;;;;;;;74.50;44.77;;;5.70;99.90;;;;;;5029052;28;20468;-69
2022/01/23 05:55:42;;;;;;;77.33;46.23;;;5.80;99.90;;;;;;5029249;28;20585;-70
2022/01/23 05:58:10;;;;;;;68.80;43.00;;;5.70;99.90;;;;;;5028251;28;21174;-69
2022/01/23 06:00:37;;;;;;;73.20;44.87;;;5.60;99.90;;;;;;5027786;28;21215;-69
2022/01/23 06:03:04;;;;;;;78.73;46.20;;;5.30;99.90;;;;;;5025788;28;20519;-72
2022/01/23 06:05:31;;;;;;;88.80;48.33;;;5.40;99.90;;;;;;5027215;28;20470;-72
2022/01/23 06:07:58;;;;;;;72.53;44.50;;;5.40;99.90;;;;;;5028591;28;20477;-72
2022/01/23 06:10:27;;;;;;;72.93;46.47;;;5.50;99.90;;;;;;5028099;28;20469;-71
2022/01/23 06:12:54;;;;;;;82.43;45.30;;;5.50;99.90;;;;;;5027847;28;20465;-72
2022/01/23 06:15:23;;;;;;;71.23;45.20;;;5.50;99.90;;;;;;5028579;28;20488;-72
2022/01/23 06:17:49;;;;;;;79.77;45.07;;;5.40;99.90;;;;;;5028507;28;20468;-71
2022/01/23 06:20:16;;;;;;;68.23;45.53;;;5.40;99.90;;;;;;5028810;28;20480;-72
2022/01/23 06:22:45;;;;;;;59.97;41.63;;;5.40;99.90;;;;;;5024674;28;20832;-72
2022/01/23 06:25:14;;;;;;;71.67;45.13;;;5.40;99.90;;;;;;5026125;28;20460;-72
2022/01/23 06:27:41;;;;;;;76.07;46.33;;;5.40;99.90;;;;;;5027301;28;20772;-69
2022/01/23 06:30:09;;;;;;;80.83;47.70;;;5.50;99.90;;;;;;5026991;28;20930;-70
2022/01/23 06:32:37;;;;;;;70.30;47.00;;;5.60;99.90;;;;;;5028017;28;20500;-69
2022/01/23 06:35:05;;;;;;;68.60;44.93;;;5.50;99.90;;;;;;5027658;28;20484;-72
2022/01/23 06:37:32;;;;;;;86.20;49.77;;;5.50;99.90;;;;;;5024589;28;20940;-72
2022/01/23 06:39:59;;;;;;;82.83;49.23;;;5.50;99.90;;;;;;5027904;28;20462;-70
2022/01/23 06:42:25;;;;;;;95.10;47.00;;;5.50;99.90;;;;;;5025291;28;20558;-70
2022/01/23 06:44:52;;;;;;;70.87;45.87;;;5.50;99.90;;;;;;5027555;28;20975;-70
2022/01/23 06:47:19;;;;;;;71.93;45.53;;;5.50;99.90;;;;;;5028557;28;20487;-70
2022/01/23 06:49:47;;;;;;;75.67;43.13;;;5.50;99.90;;;;;;5027293;28;20468;-69
2022/01/23 06:52:14;;;;;;;74.73;44.50;;;5.50;99.90;;;;;;5026182;28;22380;-70
2022/01/23 06:54:41;;;;;;;81.77;48.00;;;5.40;99.90;;;;;;5055450;28;20488;-71
2022/01/23 06:57:08;;;;;;;74.97;44.80;;;5.40;99.90;;;;;;5057223;28;20471;-71
2022/01/23 06:59:36;;;;;;;89.67;48.33;;;5.40;99.90;;;;;;5060160;28;20801;-69
2022/01/23 07:02:04;;;;;;;76.50;47.07;;;5.40;99.90;;;;;;5027390;28;20466;-69
2022/01/23 07:04:31;;;;;;;77.03;43.13;;;5.40;99.90;;;;;;5026597;28;20952;-70
2022/01/23 07:06:59;;;;;;;70.00;43.23;;;5.40;99.90;;;;;;5026263;28;20966;-70
2022/01/23 07:09:27;;;;;;;69.93;40.57;;;5.30;99.90;;;;;;5026781;28;20847;-70
2022/01/23 07:11:54;;;;;;;68.73;42.33;;;5.20;99.90;;;;;;5023452;28;20467;-70
2022/01/23 07:14:21;;;;;;;88.73;44.80;;;5.10;99.90;;;;;;5024748;28;20542;-70
2022/01/23 07:16:48;;;;;;;83.27;46.30;;;5.20;99.90;;;;;;5027276;28;20538;-71
2022/01/23 07:19:15;;;;;;;69.13;41.77;;;5.20;99.90;;;;;;5025769;28;20462;-69
2022/01/23 07:21:43;;;;;;;81.70;45.50;;;5.20;99.90;;;;;;5026816;28;20877;-70
2022/01/23 07:24:11;;;;;;;66.10;45.17;;;5.30;99.90;;;;;;5027249;28;21111;-70
2022/01/23 07:26:38;;;;;;;73.23;43.60;;;5.30;99.90;;;;;;5024514;28;20467;-71
2022/01/23 07:29:07;;;;;;;74.10;46.20;;;5.30;99.90;;;;;;5026935;28;20885;-70
2022/01/23 07:31:56;;;;;;;73.40;45.47;;;5.30;99.90;;;;;;5025609;28;21013;-70
2022/01/23 07:34:22;;;;;;;70.40;44.47;;;5.30;99.90;;;;;;5026151;28;20561;-71
2022/01/23 07:36:49;;;;;;;75.73;45.33;;;5.30;99.90;;;;;;5026704;28;20474;-69
2022/01/23 07:39:17;;;;;;;85.60;44.87;;;5.30;99.90;;;;;;5025149;28;20466;-71
2022/01/23 07:41:45;;;;;;;75.67;45.27;;;5.30;99.90;;;;;;5025829;28;20470;-70
2022/01/23 07:44:11;;;;;;;75.10;46.53;;;5.40;99.90;;;;;;5025981;28;20471;-70
2022/01/23 07:46:38;;;;;;;69.00;44.00;;;5.40;99.90;;;;;;5025579;28;20888;-70
2022/01/23 07:49:05;;;;;;;66.63;43.30;;;5.40;99.90;;;;;;5031609;28;20520;-69
2022/01/23 07:51:32;;;;;;;63.17;41.87;;;5.50;99.90;;;;;;5053893;28;20470;-70
2022/01/23 07:54:00;;;;;;;69.50;43.80;;;5.60;99.90;;;;;;5054473;28;20462;-70
2022/01/23 07:56:28;;;;;;;73.70;45.37;;;5.60;99.90;;;;;;5026296;28;20501;-70
2022/01/23 07:58:55;;;;;;;70.20;42.73;;;5.60;99.90;;;;;;5026601;28;20459;-70
2022/01/23 08:01:22;;;;;;;68.53;43.87;;;5.70;99.90;;;;;;5026824;28;20463;-70
2022/01/23 08:03:49;;;;;;;65.33;43.60;;;5.70;99.90;;;;;;5044291;28;20490;-70
2022/01/23 08:06:17;;;;;;;82.17;43.80;;;5.70;99.90;;;;;;5060688;28;20466;-69
2022/01/23 08:08:44;;;;;;;70.77;43.43;;;5.60;99.90;;;;;;5049533;28;20465;-69
2022/01/23 08:11:11;;;;;;;69.67;43.73;;;5.60;99.90;;;;;;5039914;28;20474;-70
2022/01/23 08:13:39;;;;;;;75.40;44.93;;;5.70;99.90;;;;;;5028758;28;20495;-70
2022/01/23 08:16:06;;;;;;;65.47;42.37;;;5.70;99.90;;;;;;5027110;28;20499;-70
2022/01/23 08:18:33;;;;;;;82.13;46.60;;;5.80;99.90;;;;;;5034923;28;20482;-70
2022/01/23 08:21:00;;;;;;;76.80;44.80;;;5.80;99.90;;;;;;5053271;28;20499;-72
2022/01/23 08:23:27;;;;;;;61.90;42.83;;;5.80;99.90;;;;;;5050851;28;20456;-70
2022/01/23 08:25:54;;;;;;;74.97;42.73;;;5.80;99.90;;;;;;5054186;28;20469;-69
2022/01/23 08:28:21;;;;;;;74.53;42.50;;;5.60;99.90;;;;;;5053623;28;20462;-71
2022/01/23 08:30:49;;;;;;;80.20;46.30;;;5.60;99.90;;;;;;5027642;28;20474;-70
2022/01/23 08:33:17;;;;;;;69.00;45.57;;;5.50;99.90;;;;;;5047649;28;21033;-70
2022/01/23 08:35:45;;;;;;;79.20;44.93;;;5.60;99.90;;;;;;5057194;28;20491;-69
2022/01/23 08:38:13;;;;;;;78.77;47.37;;;5.70;99.90;;;;;;5055757;28;20466;-70
2022/01/23 08:40:59;;;;;;;76.83;46.80;;;5.80;99.90;;;;;;5034870;28;20476;-70
2022/01/23 08:43:26;;;;;;;80.60;46.50;;;5.80;99.90;;;;;;5028577;28;20519;-70
2022/01/23 08:45:54;;;;;;;75.77;44.93;;;5.80;99.90;;;;;;5028612;28;20927;-70
2022/01/23 08:48:21;;;;;;;78.67;46.80;;;5.80;99.90;;;;;;5029575;28;20474;-70
2022/01/23 08:50:48;;;;;;;88.80;47.27;;;5.90;99.90;;;;;;5029045;28;20463;-70
2022/01/23 08:53:15;;;;;;;75.77;45.57;;;6.00;99.90;;;;;;5029551;28;20472;-69
2022/01/23 08:55:42;;;;;;;71.90;44.80;;;6.00;99.90;;;;;;5028507;28;20489;-70
2022/01/23 08:58:09;;;;;;;70.20;45.03;;;5.90;99.90;;;;;;5029188;28;20453;-70
2022/01/23 09:00:36;;;;;;;82.93;48.70;;;6.00;99.90;;;;;;5029161;28;20473;-70
2022/01/23 09:03:04;;;;;;;84.30;49.00;;;6.10;99.90;;;;;;5028932;28;20621;-70
2022/01/23 09:05:31;;;;;;;83.70;50.93;;;6.00;99.90;;;;;;5029458;28;20488;-69
2022/01/23 09:07:58;;;;;;;83.13;49.80;;;6.10;99.90;;;;;;5029044;28;20765;-70
2022/01/23 09:10:27;;;;;;;76.47;48.20;;;6.20;99.90;;;;;;5029420;28;20511;-71
2022/01/23 09:13:08;;;;;;;92.67;50.23;;;6.20;99.90;;;;;;5027434;28;20473;-70
2022/01/23 09:15:35;;;;;;;85.10;47.80;;;6.20;99.90;;;;;;5028181;28;20841;-70
2022/01/23 09:18:04;;;;;;;76.50;48.40;;;6.20;99.90;;;;;;5029741;28;20903;-70
2022/01/23 09:20:31;;;;;;;84.33;48.70;;;6.30;99.90;;;;;;5029054;28;20471;-70
2022/01/23 09:22:58;;;;;;;76.97;45.00;;;6.30;99.90;;;;;;5028491;28;20556;-70
2022/01/23 09:25:26;;;;;;;84.10;48.40;;;6.30;99.90;;;;;;5029476;28;21102;-70
2022/01/23 09:27:53;;;;;;;81.57;46.97;;;6.40;99.90;;;;;;5028669;28;20465;-70
2022/01/23 09:30:22;;;;;;;77.03;46.23;;;6.60;99.90;;;;;;5029412;28;20478;-69
2022/01/23 09:32:50;;;;;;;69.80;45.33;;;6.60;99.90;;;;;;5029409;28;20553;-70
2022/01/23 09:35:19;;;;;;;71.97;44.73;;;6.60;99.90;;;;;;5028121;28;20640;-70
2022/01/23 09:37:46;;;;;;;67.80;45.07;;;6.60;99.90;;;;;;5027892;28;20947;-71
2022/01/23 09:40:14;;;;;;;73.70;47.40;;;6.60;99.90;;;;;;5028192;28;20459;-70
2022/01/23 09:42:45;;;;;;;74.07;47.63;;;6.80;99.90;;;;;;5026499;28;20902;-70
2022/01/23 09:45:17;;;;;;;82.57;46.37;;;6.70;99.90;;;;;;5022512;28;21151;-70
2022/01/23 09:47:44;;;;;;;81.00;46.50;;;6.70;99.90;;;;;;5021566;28;20932;-70
2022/01/23 09:50:13;;;;;;;71.63;45.23;;;6.80;99.90;;;;;;5047750;28;20963;-72
2022/01/23 09:52:42;;;;;;;70.50;45.30;;;6.90;99.90;;;;;;5050068;28;20464;-71
2022/01/23 09:55:11;;;;;;;76.27;47.93;;;7.00;99.90;;;;;;5026783;28;20852;-71
2022/01/23 09:57:40;;;;;;;69.10;41.50;;;6.90;99.90;;;;;;5028982;28;20529;-71
2022/01/23 10:00:11;;;;;;;72.00;46.30;;;6.70;99.90;;;;;;5027694;28;20781;-69
2022/01/23 10:02:37;;;;;;;66.10;44.23;;;6.80;99.90;;;;;;5027847;28;20470;-71
2022/01/23 10:05:09;;;;;;;69.53;45.13;;;6.80;99.90;;;;;;5027289;28;20885;-72
2022/01/23 10:07:41;;;;;;;75.43;46.77;;;6.90;99.90;;;;;;5028143;28;20464;-70
2022/01/23 10:10:16;;;;;;;73.90;46.70;;;6.80;99.90;;;;;;5027497;28;21055;-71
2022/01/23 10:12:44;;;;;;;79.10;47.60;;;6.90;99.90;;;;;;5026417;28;20570;-70
2022/01/23 10:15:11;;;;;;;81.57;47.63;;;7.00;99.90;;;;;;5026880;28;20506;-70
2022/01/23 10:17:39;;;;;;;70.13;46.57;;;7.20;99.90;;;;;;5027163;28;20570;-71
2022/01/23 10:20:09;;;;;;;80.47;48.23;;;7.40;99.90;;;;;;5027642;28;20846;-72
2022/01/23 10:22:37;;;;;;;70.80;45.60;;;7.30;99.90;;;;;;5026584;28;20833;-70
2022/01/23 10:25:11;;;;;;;71.33;43.20;;;7.30;99.90;;;;;;5027064;28;21434;-71
2022/01/23 10:28:01;;;;;;;73.03;45.30;;;7.40;99.90;;;;;;5026863;28;20490;-72
2022/01/23 10:30:31;;;;;;;71.30;44.17;;;7.40;99.90;;;;;;5026887;28;20452;-71
2022/01/23 10:33:00;;;;;;;67.13;43.20;;;7.40;99.90;;;;;;5024974;28;20462;-70
2022/01/23 10:35:28;;;;;;;64.73;42.80;;;7.40;99.90;;;;;;5025230;28;20764;-71
2022/01/23 10:37:55;;;;;;;69.63;44.93;;;7.40;99.90;;;;;;5025865;28;21028;-71
2022/01/23 10:40:35;;;;;;;67.20;44.27;;;7.20;99.90;;;;;;5027204;28;20467;-71
2022/01/23 10:48:41;;;;;;;73.63;43.97;;;7.50;99.90;;;;;;5034281;28;20567;-70
2022/01/23 10:51:24;;;;;;;68.53;42.93;;;7.40;99.90;;;;;;5055256;28;20463;-70
2022/01/23 10:54:16;;;;;;;76.97;45.30;;;7.40;99.90;;;;;;5061596;28;20465;-70
2022/01/23 10:57:03;;;;;;;75.50;47.10;;;7.60;99.90;;;;;;5020893;28;20529;-71
2022/01/23 10:59:42;;;;;;;66.80;45.20;;;7.60;99.90;;;;;;5027753;28;20809;-72
2022/01/23 11:02:10;;;;;;;73.23;46.40;;;7.60;99.90;;;;;;5027716;28;21540;-70
2022/01/23 11:04:51;;;;;;;71.90;43.93;;;7.60;99.90;;;;;;5027322;28;20482;-71
2022/01/23 11:07:18;;;;;;;74.53;46.50;;;7.70;99.90;;;;;;5027183;28;20460;-71
2022/01/23 11:09:45;;;;;;;67.13;45.80;;;7.80;99.90;;;;;;5026953;28;20471;-70
2022/01/23 11:12:30;;;;;;;74.23;44.73;;;7.90;99.90;;;;;;5026467;28;20474;-71
2022/01/23 11:17:50;;;;;;;86.67;47.37;;;7.90;99.90;;;;;;5027008;28;20516;-72
2022/01/23 11:20:33;;;;;;;73.30;43.97;;;8.00;99.90;;;;;;5027354;28;20458;-71
2022/01/23 11:23:15;;;;;;;72.27;45.90;;;8.20;99.90;;;;;;5026633;28;20490;-70
2022/01/23 11:25:43;;;;;;;66.90;46.30;;;8.30;99.90;;;;;;5025723;28;20751;-71
2022/01/23 11:28:13;;;;;;;68.47;45.37;;;8.40;99.90;;;;;;5026508;28;20463;-71
2022/01/23 11:30:43;;;;;;;65.47;44.57;;;8.30;99.90;;;;;;5026624;28;20883;-70
2022/01/23 11:33:11;;;;;;;65.03;44.93;;;8.30;99.90;;;;;;5026712;28;20824;-70
2022/01/23 11:35:39;;;;;;;68.40;46.47;;;8.30;99.90;;;;;;5027070;28;20487;-70
2022/01/23 11:38:11;;;;;;;69.07;45.57;;;8.40;99.90;;;;;;5029761;28;20950;-70
2022/01/23 11:50:36;;;;;;;68.00;44.67;;;8.40;99.90;;;;;;5029685;28;20463;-70
2022/01/23 11:54:39;;;;;;;58.27;42.13;;;8.70;99.90;;;;;;5028394;28;20471;-71
2022/01/23 11:57:26;;;;;;;67.50;43.67;;;8.70;99.90;;;;;;5028202;28;20866;-70
2022/01/23 11:59:59;;;;;;;61.63;41.73;;;8.80;99.90;;;;;;5029002;28;21133;-69
2022/01/23 12:02:35;;;;;;;73.30;45.30;;;8.90;99.90;;;;;;5028714;28;20460;-70
2022/01/23 12:05:24;;;;;;;67.23;42.67;;;8.90;99.90;;;;;;5028093;28;20497;-69
2022/01/23 12:08:36;;;;;;;61.90;43.00;;;8.80;99.90;;;;;;5028763;28;20478;-70
2022/01/23 12:11:41;;;;;;;62.60;42.37;;;8.70;99.90;;;;;;5027981;28;21306;-69
2022/01/23 12:17:23;;;;;;;64.30;43.10;;;8.70;99.90;;;;;;5029174;28;20493;-70
2022/01/23 12:19:54;;;;;;;66.40;44.00;;;8.60;99.90;;;;;;5034467;28;20601;-69
2022/01/23 12:22:52;;;;;;;67.90;46.03;;;8.60;99.90;;;;;;5055195;28;20657;-69
2022/01/23 12:25:25;;;;;;;62.40;44.80;;;8.70;99.90;;;;;;5040336;28;20463;-70
2022/01/23 12:28:24;;;;;;;221.47;148.40;;;8.80;99.90;;;;;;5029456;28;20468;-69
2022/01/23 12:30:55;;;;;;;63.30;45.40;;;8.90;99.90;;;;;;5029306;28;20475;-71
2022/01/23 12:33:45;;;;;;;72.23;45.60;;;8.80;99.90;;;;;;5029417;28;20464;-69
2022/01/23 12:36:23;;;;;;;73.93;43.70;;;8.70;99.90;;;;;;5045771;28;20496;-69
2022/01/23 12:38:53;;;;;;;65.30;42.83;;;8.70;99.90;;;;;;5055219;28;20524;-69
2022/01/23 12:41:36;;;;;;;57.47;42.33;;;8.60;99.90;;;;;;5050413;28;20585;-69
2022/01/23 12:44:06;;;;;;;57.70;41.23;;;8.70;99.90;;;;;;5049073;28;20542;-69
2022/01/23 12:46:39;;;;;;;60.27;39.40;;;8.70;99.90;;;;;;5029091;28;20935;-70
2022/01/23 12:49:22;;;;;;;56.93;39.40;;;8.80;99.90;;;;;;5029936;28;20467;-69
2022/01/23 12:51:51;;;;;;;68.47;48.47;;;9.00;99.90;;;;;;5029341;28;20472;-70
2022/01/23 12:54:32;;;;;;;62.07;42.37;;;8.90;99.90;;;;;;5029377;28;20863;-69
2022/01/23 12:57:12;;;;;;;60.27;40.60;;;9.00;99.90;;;;;;5029989;28;20862;-69
2022/01/23 12:59:39;;;;;;;54.43;39.90;;;9.00;99.90;;;;;;5030243;28;20470;-70
2022/01/23 13:02:14;;;;;;;58.27;39.87;;;8.90;99.90;;;;;;5029245;28;20517;-71
2022/01/23 13:04:44;;;;;;;57.00;40.10;;;9.00;99.90;;;;;;5029524;28;20471;-70
2022/01/23 13:07:39;;;;;;;51.07;38.60;;;8.90;99.90;;;;;;5029850;28;20464;-71
2022/01/23 13:10:21;;;;;;;57.90;39.77;;;8.80;99.90;;;;;;5029314;28;20451;-69
2022/01/23 13:12:54;;;;;;;57.40;39.60;;;9.00;99.90;;;;;;5029037;28;20989;-70
2022/01/23 13:15:40;;;;;;;54.10;41.33;;;8.90;99.90;;;;;;5021064;28;20471;-69
2022/01/23 13:18:19;;;;;;;63.37;42.30;;;8.40;99.90;;;;;;5025037;28;20498;-69
2022/01/23 13:26:39;;;;;;;56.10;39.43;;;8.90;99.90;;;;;;5025658;28;20510;-70
2022/01/23 13:31:57;;;;;;;61.97;40.07;;;9.20;99.90;;;;;;5025026;28;20543;-70
2022/01/23 13:34:30;;;;;;;60.07;41.50;;;9.10;99.90;;;;;;5023765;28;20474;-69
2022/01/23 13:37:05;;;;;;;58.23;41.23;;;9.00;99.90;;;;;;5024158;28;21111;-71
2022/01/23 13:39:37;;;;;;;58.67;41.07;;;9.00;99.90;;;;;;5024786;28;20592;-71
2022/01/23 13:42:19;;;;;;;60.57;42.07;;;8.90;99.90;;;;;;5024254;28;21038;-69
2022/01/23 13:53:25;;;;;;;67.33;50.80;;;8.90;99.90;;;;;;5022807;28;20776;-72
2022/01/23 13:58:39;;;;;;;61.67;41.93;;;8.80;99.90;;;;;;5021841;28;20549;-70
2022/01/23 14:01:32;;;;;;;69.73;47.40;;;8.70;99.90;;;;;;5021990;28;20898;-70
2022/01/23 14:03:59;;;;;;;72.43;43.23;;;8.80;99.90;;;;;;5021599;28;20661;-71
2022/01/23 14:06:26;;;;;;;61.30;40.80;;;8.70;99.90;;;;;;5021928;28;20680;-70
2022/01/23 14:09:09;;;;;;;99.97;65.20;;;8.80;99.90;;;;;;5021685;28;20504;-70
2022/01/23 14:11:36;;;;;;;72.83;51.23;;;8.70;99.90;;;;;;5022297;28;20463;-71
2022/01/23 14:14:14;;;;;;;72.60;45.07;;;8.80;99.90;;;;;;5024072;28;20491;-72
2022/01/23 14:16:41;;;;;;;65.67;43.93;;;8.70;99.90;;;;;;5023946;28;20479;-70
2022/01/23 14:19:20;;;;;;;66.83;42.17;;;8.80;99.90;;;;;;5024102;28;20471;-71
2022/01/23 14:21:49;;;;;;;66.27;43.00;;;8.60;99.90;;;;;;5024024;28;20459;-71
2022/01/23 14:24:26;;;;;;;66.17;44.80;;;8.60;99.90;;;;;;5022614;28;20833;-72
2022/01/23 14:27:06;;;;;;;58.47;42.20;;;8.60;99.90;;;;;;5023837;28;20511;-70
2022/01/23 14:29:35;;;;;;;56.83;38.47;;;8.50;99.90;;;;;;5024115;28;20473;-69
2022/01/23 14:32:14;;;;;;;60.47;40.90;;;8.40;99.90;;;;;;5023593;28;21002;-71
2022/01/23 14:34:41;;;;;;;60.13;43.77;;;8.40;99.90;;;;;;5023575;28;20950;-69
2022/01/23 14:37:08;;;;;;;54.00;40.77;;;8.60;99.90;;;;;;5022838;28;21255;-70
2022/01/23 14:39:37;;;;;;;54.30;40.07;;;8.60;99.90;;;;;;5023161;28;21150;-70
2022/01/23 14:42:13;;;;;;;59.63;39.07;;;8.50;99.90;;;;;;5023161;28;20475;-71
2022/01/23 14:44:40;;;;;;;58.23;41.57;;;8.50;99.90;;;;;;5023210;28;20535;-71
2022/01/23 14:47:09;;;;;;;63.60;42.67;;;8.40;99.90;;;;;;5023313;28;20474;-71
2022/01/23 14:49:37;;;;;;;55.93;40.80;;;8.30;99.90;;;;;;5022835;28;20459;-69
2022/01/23 14:52:10;;;;;;;63.63;42.43;;;8.40;99.90;;;;;;5023958;28;20463;-70
2022/01/23 14:54:38;;;;;;;63.30;42.50;;;8.30;99.90;;;;;;5022201;28;20558;-70
2022/01/23 14:57:08;;;;;;;68.07;43.53;;;8.30;99.90;;;;;;5022772;28;20498;-70
2022/01/23 14:59:36;;;;;;;55.77;41.57;;;8.30;99.90;;;;;;5023616;28;20857;-70
2022/01/23 15:02:05;;;;;;;59.13;41.30;;;8.20;99.90;;;;;;5022311;28;20880;-70
2022/01/23 15:04:41;;;;;;;62.30;41.83;;;8.30;99.90;;;;;;5022144;28;20487;-69
2022/01/23 15:07:14;;;;;;;54.83;40.13;;;8.30;99.90;;;;;;5022550;28;20475;-69
2022/01/23 15:09:43;;;;;;;52.40;38.80;;;8.30;99.90;;;;;;5023754;28;21070;-69
2022/01/23 15:12:11;;;;;;;54.50;39.93;;;8.30;99.90;;;;;;5023207;28;20471;-71
2022/01/23 15:14:38;;;;;;;58.40;41.10;;;8.30;99.90;;;;;;5026664;28;20498;-69
2022/01/23 15:17:05;;;;;;;53.20;41.20;;;8.20;99.90;;;;;;5026448;28;20999;-69
2022/01/23 15:19:33;;;;;;;57.37;41.33;;;8.30;99.90;;;;;;5027179;28;20788;-71
2022/01/23 15:22:00;;;;;;;55.43;39.03;;;8.30;99.90;;;;;;5026343;28;21137;-70
2022/01/23 15:24:27;;;;;;;48.30;37.00;;;8.40;99.90;;;;;;5026841;28;20467;-69
2022/01/23 15:26:56;;;;;;;51.77;38.57;;;8.50;99.90;;;;;;5027553;28;21270;-69
2022/01/23 15:29:23;;;;;;;52.50;38.10;;;8.40;99.90;;;;;;5026966;28;20486;-69
2022/01/23 15:31:50;;;;;;;53.93;38.47;;;8.40;99.90;;;;;;5036832;28;20931;-70
2022/01/23 15:34:17;;;;;;;49.87;38.27;;;8.40;99.90;;;;;;5057121;28;20464;-70
2022/01/23 15:36:46;;;;;;;53.23;37.67;;;8.40;99.90;;;;;;5059334;28;20482;-69
2022/01/23 15:39:15;;;;;;;56.23;40.97;;;8.30;99.90;;;;;;5057825;28;20462;-70
2022/01/23 15:41:42;;;;;;;53.10;39.33;;;8.30;99.90;;;;;;5033931;28;20839;-68
2022/01/23 15:44:10;;;;;;;49.67;38.83;;;8.30;99.90;;;;;;5026737;28;20583;-69
2022/01/23 15:46:37;;;;;;;51.77;39.40;;;8.30;99.90;;;;;;5026830;28;20846;-70
2022/01/23 15:49:05;;;;;;;52.90;41.10;;;8.30;99.90;;;;;;5026641;28;20796;-70